Time;durP1;ratioP1;P1;durP2;ratioP2;P2;SDS_P1;SDS_P2;PMS_P1;PMS_P2;Temp;Humidity;BMP_temperature;BMP_pressure;BME280_temperature;BME280_humidity;BME280_pressure;Samples;Min_cycle;Max_cycle;Signal;HPM_P1;HPM_P2
2022/08/13 00:00:59;;;;;;;;;;;;;;;24.45;72.52;97976.81;4999258;28;19933;-85
2022/08/13 00:03:26;;;;;;;;;;;;;;;24.44;72.32;97975.25;4993221;28;19925;-85
2022/08/13 00:05:54;;;;;;;;;;;;;;;24.32;72.46;97977.28;5002175;28;20029;-85
2022/08/13 00:08:22;;;;;;;;;;;;;;;24.38;72.17;97976.66;4998987;28;19929;-84
2022/08/13 00:10:49;;;;;;;;;;;;;;;24.35;71.78;97969.19;5007176;28;19929;-84
2022/08/13 00:13:16;;;;;;;;;;;;;;;24.41;71.34;97975.97;5004475;28;20020;-84
2022/08/13 00:15:44;;;;;;;;;;;;;;;24.33;71.43;97973.38;4999553;28;19987;-84
2022/08/13 00:18:11;;;;;;;;;;;;;;;24.31;71.67;97965.56;5002414;28;19931;-83
2022/08/13 00:20:39;;;;;;;;;;;;;;;24.39;70.88;97972.78;5005453;28;20374;-85
2022/08/13 00:23:07;;;;;;;;;;;;;;;24.39;70.53;97972.78;5003163;28;20037;-89
2022/08/13 00:25:33;;;;;;;;;;;;;;;24.45;70.32;97976.81;5003597;28;19948;-85
2022/08/13 00:28:02;;;;;;;;;;;;;;;24.44;70.03;97969.00;5002126;28;19939;-85
2022/08/13 00:30:31;;;;;;;;;;;;;;;24.44;69.74;97964.34;4994055;28;19932;-86
2022/08/13 00:32:59;;;;;;;;;;;;;;;24.24;69.98;97965.38;4999343;28;19936;-85
2022/08/13 00:35:26;;;;;;;;;;;;;;;23.89;70.93;97956.22;5002012;28;20254;-86
2022/08/13 00:37:53;;;;;;;;;;;;;;;23.85;72.82;97958.84;5003059;28;19933;-86
2022/08/13 00:40:20;;;;;;;;;;;;;;;23.65;73.86;97952.47;5004640;28;19964;-87
2022/08/13 00:42:46;;;;;;;;;;;;;;;23.84;73.59;97951.00;4999727;28;20801;-86
2022/08/13 00:45:13;;;;;;;;;;;;;;;23.76;73.39;97951.97;5004698;28;20029;-86
2022/08/13 00:50:26;;;;;;;;;;;;;;;23.84;72.70;97946.34;5015900;28;19930;-86
2022/08/13 00:52:54;;;;;;;;;;;;;;;23.95;71.88;97938.47;5006320;28;19929;-86
2022/08/13 00:55:20;;;;;;;;;;;;;;;24.07;70.89;97941.91;4999674;28;19932;-87
2022/08/13 00:57:48;;;;;;;;;;;;;;;24.03;70.66;97934.78;4999548;28;19933;-86
2022/08/13 01:00:16;;;;;;;;;;;;;;;23.93;71.00;97936.06;5001891;28;19936;-88
2022/08/13 01:02:44;;;;;;;;;;;;;;;24.02;70.77;97941.38;4999210;28;19961;-85
2022/08/13 01:05:10;;;;;;;;;;;;;;;23.88;71.39;97935.53;4999936;28;19976;-87
2022/08/13 01:07:41;;;;;;;;;;;;;;;23.80;71.58;97931.81;5004293;28;19930;-85
2022/08/13 01:10:08;;;;;;;;;;;;;;;23.80;71.73;97931.03;4996523;28;20270;-85
2022/08/13 01:12:37;;;;;;;;;;;;;;;23.89;71.05;97920.78;4994241;28;19936;-87
2022/08/13 01:15:05;;;;;;;;;;;;;;;23.82;71.15;97920.56;4988575;28;19926;-85
2022/08/13 01:17:32;;;;;;;;;;;;;;;23.85;70.77;97926.13;4990592;28;20012;-85
2022/08/13 01:19:58;;;;;;;;;;;;;;;23.80;70.94;97928.31;4987862;28;20026;-87
2022/08/13 01:22:26;;;;;;;;;;;;;;;23.65;71.81;97921.66;4988623;28;20369;-85
2022/08/13 01:24:53;;;;;;;;;;;;;;;23.03;73.72;97927.63;4991397;28;19995;-85
2022/08/13 01:27:22;;;;;;;;;;;;;;;22.89;76.60;97927.19;4998745;28;20016;-85
2022/08/13 01:29:48;;;;;;;;;;;;;;;22.34;79.15;97927.75;4984115;28;19926;-86
2022/08/13 01:32:15;;;;;;;;;;;;;;;22.00;82.50;97927.00;4992707;28;20008;-88
2022/08/13 01:34:42;;;;;;;;;;;;;;;22.06;83.32;97928.38;4995347;28;19925;-85
2022/08/13 01:37:09;;;;;;;;;;;;;;;22.15;82.94;97935.66;4990673;28;19930;-86
2022/08/13 01:39:38;;;;;;;;;;;;;;;22.13;82.59;97932.50;4986407;28;19972;-86
2022/08/13 01:42:04;;;;;;;;;;;;;;;22.44;81.07;97928.09;4981029;28;19929;-90
2022/08/13 01:44:31;;;;;;;;;;;;;;;22.13;81.85;97927.81;4987730;28;20087;-86
2022/08/13 01:52:34;;;;;;;;;;;;;;;22.77;78.45;97917.13;4982699;28;19948;-84
2022/08/13 01:55:02;;;;;;;;;;;;;;;23.04;76.12;97918.31;4989557;28;19945;-86
2022/08/13 01:57:30;;;;;;;;;;;;;;;23.21;74.55;97911.81;4998023;28;19973;-86
2022/08/13 01:59:57;;;;;;;;;;;;;;;23.43;72.48;97905.84;4986454;28;19930;-85
2022/08/13 02:02:24;;;;;;;;;;;;;;;23.50;71.29;97915.03;4993453;28;20574;-85
2022/08/13 02:04:52;;;;;;;;;;;;;;;23.49;70.72;97918.88;4986950;28;19989;-85
2022/08/13 02:07:19;;;;;;;;;;;;;;;23.48;70.50;97920.03;4994174;28;19926;-85
2022/08/13 02:09:45;;;;;;;;;;;;;;;22.46;74.61;97919.59;4994964;28;19972;-86
2022/08/13 02:12:13;;;;;;;;;;;;;;;22.04;79.71;97918.97;4979571;28;20413;-86
2022/08/13 02:14:42;;;;;;;;;;;;;;;22.08;80.93;97903.56;4981575;28;19983;-86
2022/08/13 02:17:24;;;;;;;;;;;;;;;22.56;77.58;97903.59;4985176;28;19929;-85
2022/08/13 02:19:52;;;;;;;;;;;;;;;22.93;75.15;97906.31;5006281;28;19929;-86
2022/08/13 02:22:19;;;;;;;;;;;;;;;23.17;72.94;97900.81;4989871;28;19932;-85
2022/08/13 02:24:48;;;;;;;;;;;;;;;23.28;71.47;97890.22;4988248;28;20022;-84
2022/08/13 02:27:20;;;;;;;;;;;;;;;23.38;70.69;97885.06;4990929;28;20032;-85
2022/08/13 02:29:47;;;;;;;;;;;;;;;23.43;70.16;97903.13;4994901;28;19929;-86
2022/08/13 02:32:13;;;;;;;;;;;;;;;23.12;70.37;97892.88;4989432;28;20530;-86
2022/08/13 02:34:40;;;;;;;;;;;;;;;23.25;70.48;97890.91;4994122;28;19980;-87
2022/08/13 02:37:06;;;;;;;;;;;;;;;22.58;72.53;97895.91;4998241;28;19925;-85
2022/08/13 02:39:33;;;;;;;;;;;;;;;22.13;77.13;97903.34;4984951;28;19944;-84
2022/08/13 02:41:58;;;;;;;;;;;;;;;21.83;79.95;97896.47;4997936;28;20499;-86
2022/08/13 02:44:27;;;;;;;;;;;;;;;21.87;80.27;97898.19;5000383;28;20443;-85
2022/08/13 02:46:53;;;;;;;;;;;;;;;22.20;79.16;97900.06;4985429;28;20396;-85
2022/08/13 02:49:21;;;;;;;;;;;;;;;22.52;76.82;97886.38;4991757;28;19984;-85
2022/08/13 02:51:47;;;;;;;;;;;;;;;22.89;73.78;97892.59;4992428;28;20012;-85
2022/08/13 02:54:16;;;;;;;;;;;;;;;23.05;72.63;97881.78;4987319;28;20024;-86
2022/08/13 02:56:43;;;;;;;;;;;;;;;23.06;71.85;97884.16;4991559;28;19933;-85
2022/08/13 02:59:11;;;;;;;;;;;;;;;23.21;70.48;97881.84;4992406;28;20408;-85
2022/08/13 03:01:39;;;;;;;;;;;;;;;23.22;70.34;97881.50;4990292;28;19941;-84
2022/08/13 03:04:06;;;;;;;;;;;;;;;23.24;69.50;97876.47;4993227;28;19926;-85
2022/08/13 03:06:32;;;;;;;;;;;;;;;23.16;70.29;97884.81;4993122;28;19965;-86
2022/08/13 03:09:01;;;;;;;;;;;;;;;23.19;69.67;97876.72;4996682;28;19964;-85
2022/08/13 03:11:28;;;;;;;;;;;;;;;22.96;70.51;97878.41;4994978;28;19983;-86
2022/08/13 03:13:57;;;;;;;;;;;;;;;22.67;72.51;97884.09;4994135;28;20607;-85
2022/08/13 03:16:24;;;;;;;;;;;;;;;22.85;71.95;97882.72;4989932;28;19941;-86
2022/08/13 03:18:53;;;;;;;;;;;;;;;22.63;71.89;97869.56;4994916;28;19937;-85
2022/08/13 03:21:20;;;;;;;;;;;;;;;22.77;72.30;97876.28;4996230;28;19932;-85
2022/08/13 03:23:46;;;;;;;;;;;;;;;22.64;72.70;97871.16;4995194;28;20616;-86
2022/08/13 03:26:12;;;;;;;;;;;;;;;22.68;73.21;97877.53;4988945;28;19926;-86
2022/08/13 03:28:39;;;;;;;;;;;;;;;22.82;71.79;97877.97;4994594;28;19932;-85
2022/08/13 03:31:06;;;;;;;;;;;;;;;22.72;72.40;97878.41;4988755;28;20532;-85
2022/08/13 03:33:32;;;;;;;;;;;;;;;22.82;71.67;97872.50;4989149;28;19925;-86
2022/08/13 03:36:00;;;;;;;;;;;;;;;22.90;70.79;97866.16;4986713;28;19930;-86
2022/08/13 03:38:26;;;;;;;;;;;;;;;22.72;71.19;97881.16;4988747;28;20640;-85
2022/08/13 03:41:02;;;;;;;;;;;;;;;22.64;72.22;97876.59;4994805;28;19971;-85
2022/08/13 03:43:30;;;;;;;;;;;;;;;22.82;71.21;97883.41;4983513;28;20063;-85
2022/08/13 03:45:57;;;;;;;;;;;;;;;22.87;70.97;97885.91;4996085;28;20424;-84
2022/08/13 03:48:25;;;;;;;;;;;;;;;22.57;72.36;97880.69;4982648;28;20148;-85
2022/08/13 03:50:52;;;;;;;;;;;;;;;22.62;71.99;97876.97;4994076;28;19931;-85
2022/08/13 03:53:21;;;;;;;;;;;;;;;22.79;71.19;97884.09;4977072;28;20021;-85
2022/08/13 03:55:48;;;;;;;;;;;;;;;22.77;70.56;97875.47;4995086;28;19936;-85
2022/08/13 03:58:15;;;;;;;;;;;;;;;22.53;70.93;97877.06;4996929;28;20297;-85
2022/08/13 04:00:43;;;;;;;;;;;;;;;22.46;71.99;97867.88;4992816;28;20119;-86
2022/08/13 04:03:14;;;;;;;;;;;;;;;22.45;72.22;97869.81;5000311;28;19979;-85
2022/08/13 04:05:40;;;;;;;;;;;;;;;22.64;71.41;97868.44;5002634;28;19968;-86
2022/08/13 04:08:07;;;;;;;;;;;;;;;22.68;70.63;97872.09;5006180;28;19933;-86
2022/08/13 04:10:35;;;;;;;;;;;;;;;22.23;72.46;97883.88;5001455;28;19925;-86
2022/08/13 04:13:01;;;;;;;;;;;;;;;21.75;76.36;97889.19;5005526;28;20322;-86
2022/08/13 04:15:27;;;;;;;;;;;;;;;21.93;77.47;97879.75;5005293;28;20430;-85
2022/08/13 04:17:54;;;;;;;;;;;;;;;22.21;74.95;97877.19;5001153;28;20020;-85
2022/08/13 04:20:21;;;;;;;;;;;;;;;22.45;73.11;97874.47;5003668;28;19930;-85
2022/08/13 04:22:48;;;;;;;;;;;;;;;22.63;71.79;97875.00;5006526;28;19937;-85
2022/08/13 04:25:15;;;;;;;;;;;;;;;22.79;70.53;97875.94;5006655;28;19933;-85
2022/08/13 04:27:43;;;;;;;;;;;;;;;22.85;70.27;97858.22;5007063;28;19936;-87
2022/08/13 04:30:10;;;;;;;;;;;;;;;22.87;69.61;97858.69;5007135;28;19940;-87
2022/08/13 04:32:42;;;;;;;;;;;;;;;22.97;69.37;97860.91;5014051;28;20383;-86
2022/08/13 04:35:10;;;;;;;;;;;;;;;22.93;69.16;97857.31;5005972;28;19929;-85
2022/08/13 04:37:36;;;;;;;;;;;;;;;22.77;69.97;97872.75;5006340;28;20557;-86
2022/08/13 04:40:03;;;;;;;;;;;;;;;22.50;71.75;97871.50;5005491;28;20047;-86
2022/08/13 04:42:44;;;;;;;;;;;;;;;22.55;71.65;97869.34;5011297;28;20020;-85
2022/08/13 04:45:13;;;;;;;;;;;;;;;22.52;72.15;97863.81;4992328;28;19929;-87
2022/08/13 04:47:41;;;;;;;;;;;;;;;22.59;72.37;97874.91;4998779;28;19936;-86
2022/08/13 04:50:08;;;;;;;;;;;;;;;22.59;71.94;97870.25;4990415;28;20304;-86
2022/08/13 04:52:35;;;;;;;;;;;;;;;22.43;73.20;97865.84;5000086;28;20032;-85
2022/08/13 04:55:02;;;;;;;;;;;;;;;21.72;78.88;97887.16;5003047;28;20032;-85
2022/08/13 04:57:28;;;;;;;;;;;;;;;21.42;81.74;97881.84;4999785;28;19980;-85
2022/08/13 04:59:56;;;;;;;;;;;;;;;21.58;80.41;97879.28;4997260;28;19969;-85
2022/08/13 05:02:23;;;;;;;;;;;;;;;21.98;78.46;97884.97;4999102;28;19936;-85
2022/08/13 05:04:50;;;;;;;;;;;;;;;22.22;75.70;97881.50;4999574;28;19981;-85
2022/08/13 05:07:16;;;;;;;;;;;;;;;22.18;74.98;97892.25;5006054;28;19930;-86
2022/08/13 05:09:42;;;;;;;;;;;;;;;22.31;74.74;97888.38;5006113;28;20028;-85
2022/08/13 05:12:11;;;;;;;;;;;;;;;22.38;73.65;97893.28;5005748;28;20746;-84
2022/08/13 05:14:37;;;;;;;;;;;;;;;22.28;74.25;97905.38;5005712;28;20400;-86
2022/08/13 05:17:05;;;;;;;;;;;;;;;22.22;75.08;97904.03;5002055;28;19972;-85
2022/08/13 05:19:32;;;;;;;;;;;;;;;22.04;76.25;97892.56;5005570;28;19926;-86
2022/08/13 05:21:58;;;;;;;;;;;;;;;22.03;76.25;97899.13;5004185;28;20008;-85
2022/08/13 05:24:25;;;;;;;;;;;;;;;22.03;76.58;97892.91;5005450;28;19983;-85
2022/08/13 05:26:52;;;;;;;;;;;;;;;22.14;75.74;97891.34;5008212;28;19951;-86
2022/08/13 05:29:19;;;;;;;;;;;;;;;22.33;74.41;97893.50;5001912;28;20361;-84
2022/08/13 05:31:46;;;;;;;;;;;;;;;22.44;73.53;97895.44;5005973;28;20020;-85
2022/08/13 05:34:14;;;;;;;;;;;;;;;22.46;72.85;97897.81;5005939;28;20307;-85
2022/08/13 05:36:42;;;;;;;;;;;;;;;22.51;72.00;97901.09;5005282;28;19949;-85
2022/08/13 05:39:09;;;;;;;;;;;;;;;22.57;71.69;97894.28;5005576;28;19965;-85
2022/08/13 05:41:36;;;;;;;;;;;;;;;22.41;72.37;97896.09;5007737;28;20020;-85
2022/08/13 05:44:02;;;;;;;;;;;;;;;22.34;72.95;97901.34;5001474;28;20237;-86
2022/08/13 05:46:30;;;;;;;;;;;;;;;21.93;76.59;97902.31;4999342;28;20603;-86
2022/08/13 05:48:59;;;;;;;;;;;;;;;21.61;78.98;97907.72;4993480;28;20726;-85
2022/08/13 05:51:29;;;;;;;;;;;;;;;21.61;79.66;97896.84;4991559;28;19929;-85
2022/08/13 05:53:59;;;;;;;;;;;;;;;21.89;77.79;97897.84;4995990;28;19933;-86
2022/08/13 05:56:26;;;;;;;;;;;;;;;21.67;79.60;97903.66;4993087;28;19933;-85
2022/08/13 05:58:52;;;;;;;;;;;;;;;22.00;76.84;97897.09;4996185;28;19948;-86
2022/08/13 06:04:04;;;;;;;;;;;;;;;22.63;73.47;97891.34;5001657;28;19932;-85
2022/08/13 06:06:32;;;;;;;;;;;;;;;22.93;71.88;97898.16;5004466;28;19932;-86
2022/08/13 06:08:59;;;;;;;;;;;;;;;23.01;70.61;97894.50;5005148;28;20024;-86
2022/08/13 06:11:26;;;;;;;;;;;;;;;23.22;70.07;97894.31;5001418;28;20223;-86
2022/08/13 06:13:53;;;;;;;;;;;;;;;23.23;70.09;97893.97;4996797;28;19925;-85
2022/08/13 06:16:20;;;;;;;;;;;;;;;23.21;70.27;97888.06;4998614;28;20444;-86
2022/08/13 06:18:48;;;;;;;;;;;;;;;23.48;69.08;97887.34;5003229;28;19979;-88
2022/08/13 06:21:16;;;;;;;;;;;;;;;23.45;69.33;97895.41;5001928;28;19969;-86
2022/08/13 06:23:45;;;;;;;;;;;;;;;23.51;69.46;97891.28;5001378;28;20032;-85
2022/08/13 06:26:14;;;;;;;;;;;;;;;23.48;69.68;97883.81;4997975;28;19932;-86
2022/08/13 06:28:41;;;;;;;;;;;;;;;23.79;68.43;97883.09;5003386;28;20430;-85
2022/08/13 06:31:08;;;;;;;;;;;;;;;23.47;69.20;97888.47;4999899;28;19972;-85
2022/08/13 06:33:36;;;;;;;;;;;;;;;23.12;69.72;97892.88;5004217;28;19932;-84
2022/08/13 06:36:05;;;;;;;;;;;;;;;23.19;71.32;97890.34;4997341;28;20009;-86
2022/08/13 06:38:32;;;;;;;;;;;;;;;23.32;71.69;97891.91;5002881;28;19980;-85
2022/08/13 06:41:00;;;;;;;;;;;;;;;23.33;71.58;97888.06;5007043;28;20325;-86
2022/08/13 06:43:27;;;;;;;;;;;;;;;22.95;72.01;97887.69;4999477;28;19930;-86
2022/08/13 06:45:55;;;;;;;;;;;;;;;22.75;72.61;97885.91;4993619;28;19930;-86
2022/08/13 06:48:21;;;;;;;;;;;;;;;22.50;74.97;97890.53;4993198;28;19930;-86
2022/08/13 06:50:50;;;;;;;;;;;;;;;22.28;77.13;97889.06;4991278;28;20451;-86
2022/08/13 06:53:17;;;;;;;;;;;;;;;22.65;76.08;97891.81;4994135;28;20547;-85
2022/08/13 06:55:44;;;;;;;;;;;;;;;23.22;73.88;97886.13;4998442;28;19933;-86
2022/08/13 06:58:12;;;;;;;;;;;;;;;23.76;71.24;97890.03;4989272;28;19951;-87
2022/08/13 07:00:39;;;;;;;;;;;;;;;24.24;68.49;97894.41;5003939;28;20028;-86
2022/08/13 07:03:06;;;;;;;;;;;;;;;24.55;66.73;97896.31;4999262;28;20411;-85
2022/08/13 07:05:33;;;;;;;;;;;;;;;24.10;66.34;97894.03;5006486;28;19976;-86
2022/08/13 07:08:02;;;;;;;;;;;;;;;24.02;67.80;97893.06;5005121;28;19929;-86
2022/08/13 07:10:29;;;;;;;;;;;;;;;23.59;69.58;97891.13;5004085;28;19930;-86
2022/08/13 07:12:56;;;;;;;;;;;;;;;23.19;71.92;97893.06;5004497;28;20364;-86
2022/08/13 07:15:24;;;;;;;;;;;;;;;23.44;72.31;97888.38;5011542;28;20479;-86
2022/08/13 07:17:50;;;;;;;;;;;;;;;23.69;71.50;97887.13;5004459;28;19929;-86
2022/08/13 07:20:17;;;;;;;;;;;;;;;23.94;70.26;97891.28;5003207;28;19936;-87
2022/08/13 07:22:44;;;;;;;;;;;;;;;24.02;69.15;97884.06;5003952;28;19932;-88
2022/08/13 07:25:11;;;;;;;;;;;;;;;23.97;69.58;97881.63;5005394;28;19977;-86
2022/08/13 07:27:38;;;;;;;;;;;;;;;24.32;68.47;97882.53;5008074;28;19925;-85
2022/08/13 07:30:05;;;;;;;;;;;;;;;24.29;67.90;97880.53;5008331;28;19925;-85
2022/08/13 07:32:36;;;;;;;;;;;;;;;24.02;69.01;97887.59;5007323;28;20004;-86
2022/08/13 07:35:02;;;;;;;;;;;;;;;24.09;70.13;97882.34;5005916;28;19932;-86
2022/08/13 07:37:29;;;;;;;;;;;;;;;24.61;68.38;97884.00;5003993;28;19926;-85
2022/08/13 07:39:56;;;;;;;;;;;;;;;24.71;67.75;97880.72;5006555;28;19929;-86
2022/08/13 07:42:23;;;;;;;;;;;;;;;24.73;67.45;97872.19;4998635;28;19987;-85
2022/08/13 07:44:52;;;;;;;;;;;;;;;24.84;66.75;97874.03;5001024;28;19932;-85
2022/08/13 07:47:20;;;;;;;;;;;;;;;24.64;67.37;97877.81;4995308;28;19934;-85
2022/08/13 07:49:48;;;;;;;;;;;;;;;24.65;67.07;97874.75;4994475;28;19940;-86
2022/08/13 07:52:15;;;;;;;;;;;;;;;24.36;68.17;97869.75;4994266;28;19936;-85
2022/08/13 07:54:42;;;;;;;;;;;;;;;24.48;68.10;97872.38;4997699;28;20016;-86
2022/08/13 07:57:09;;;;;;;;;;;;;;;24.53;67.99;97866.66;4991740;28;19975;-86
2022/08/13 07:59:36;;;;;;;;;;;;;;;24.67;67.23;97874.38;4988803;28;20121;-85
2022/08/13 08:02:06;;;;;;;;;;;;;;;24.75;67.07;97875.34;4994800;28;19940;-86
2022/08/13 08:04:34;;;;;;;;;;;;;;;24.73;66.97;97871.00;4999762;28;20012;-86
2022/08/13 08:07:03;;;;;;;;;;;;;;;24.95;66.23;97869.56;5006078;28;19934;-86
2022/08/13 08:09:30;;;;;;;;;;;;;;;24.94;66.06;97859.81;5000628;28;19926;-86
2022/08/13 08:14:41;;;;;;;;;;;;;;;25.12;65.33;97865.66;4983110;28;19929;-86
2022/08/13 08:17:10;;;;;;;;;;;;;;;24.90;66.07;97877.28;4997974;28;20032;-86
2022/08/13 08:19:38;;;;;;;;;;;;;;;24.65;67.55;97869.28;4996014;28;20028;-86
2022/08/13 08:22:07;;;;;;;;;;;;;;;24.60;68.37;97864.06;4993828;28;19926;-87
2022/08/13 08:24:33;;;;;;;;;;;;;;;24.81;67.29;97865.72;4990554;28;19926;-89
2022/08/13 08:27:01;;;;;;;;;;;;;;;24.87;66.55;97867.06;4996187;28;19940;-84
2022/08/13 08:29:28;;;;;;;;;;;;;;;24.78;67.47;97869.16;4997266;28;19962;-86
2022/08/13 08:31:55;;;;;;;;;;;;;;;24.73;68.12;97872.94;4994602;28;19933;-86
2022/08/13 08:34:21;;;;;;;;;;;;;;;24.92;67.35;97864.81;4993760;28;20023;-86
2022/08/13 08:36:47;;;;;;;;;;;;;;;25.14;66.18;97864.13;4992619;28;20058;-85
2022/08/13 08:44:45;;;;;;;;;;;;;;;25.91;62.45;97866.81;4994433;28;19929;-86
2022/08/13 08:47:11;;;;;;;;;;;;;;;26.19;61.44;97863.78;4996539;28;19976;-87
2022/08/13 08:49:39;;;;;;;;;;;;;;;26.44;60.37;97862.25;4993024;28;20205;-86
2022/08/13 08:52:06;;;;;;;;;;;;;;;26.61;59.73;97861.75;4996961;28;19925;-86
2022/08/13 08:54:34;;;;;;;;;;;;;;;26.74;58.96;97856.81;5001432;28;19929;-86
2022/08/13 08:57:03;;;;;;;;;;;;;;;26.47;57.67;97857.97;4996870;28;19936;-85
2022/08/13 08:59:35;;;;;;;;;;;;;;;26.17;57.80;97855.16;4989725;28;19929;-87
2022/08/13 09:02:02;;;;;;;;;;;;;;;26.33;58.45;97850.34;4999346;28;20396;-86
2022/08/13 09:04:29;;;;;;;;;;;;;;;26.23;55.87;97851.75;4998401;28;19931;-86
2022/08/13 09:06:57;;;;;;;;;;;;;;;26.15;55.83;97850.06;5002482;28;19929;-86
2022/08/13 09:09:24;;;;;;;;;;;;;;;26.67;55.91;97849.31;5001977;28;19952;-86
2022/08/13 09:11:55;;;;;;;;;;;;;;;26.90;55.23;97845.72;5002204;28;19975;-86
2022/08/13 09:14:25;;;;;;;;;;;;;;;27.40;53.31;97842.44;5008013;28;19929;-86
2022/08/13 09:16:54;;;;;;;;;;;;;;;27.26;52.94;97842.28;5022530;28;19929;-86
2022/08/13 09:19:20;;;;;;;;;;;;;;;26.71;52.77;97850.13;5001085;28;19960;-86
2022/08/13 09:21:47;;;;;;;;;;;;;;;26.57;52.70;97854.63;4995325;28;20436;-85
2022/08/13 09:24:15;;;;;;;;;;;;;;;27.37;51.45;97843.19;4996082;28;19964;-86
2022/08/13 09:26:43;;;;;;;;;;;;;;;27.10;48.55;97841.69;4998183;28;19925;-85
2022/08/13 09:29:12;;;;;;;;;;;;;;;27.28;49.17;97843.47;5006231;28;19930;-86
2022/08/13 09:31:41;;;;;;;;;;;;;;;27.12;49.29;97842.88;5002321;28;19932;-85
2022/08/13 09:34:08;;;;;;;;;;;;;;;26.66;49.22;97839.50;5004578;28;19930;-85
2022/08/13 09:36:36;;;;;;;;;;;;;;;26.48;49.49;97841.19;5007179;28;20023;-85
2022/08/13 09:39:03;;;;;;;;;;;;;;;26.49;49.81;97840.03;5003396;28;19930;-86
2022/08/13 09:41:33;;;;;;;;;;;;;;;26.60;50.15;97831.97;5009716;28;20411;-85
2022/08/13 09:43:59;;;;;;;;;;;;;;;26.75;50.46;97828.28;5003335;28;19933;-86
2022/08/13 09:46:29;;;;;;;;;;;;;;;26.76;48.91;97836.13;4999592;28;19933;-86
2022/08/13 09:48:56;;;;;;;;;;;;;;;26.73;48.73;97828.66;5001104;28;19929;-85
2022/08/13 09:51:24;;;;;;;;;;;;;;;27.00;48.32;97817.66;5005191;28;19929;-85
2022/08/13 09:53:51;;;;;;;;;;;;;;;27.12;49.17;97814.69;5001235;28;20000;-86
2022/08/13 09:56:17;;;;;;;;;;;;;;;27.31;47.46;97812.56;5006706;28;19984;-86
2022/08/13 09:58:45;;;;;;;;;;;;;;;27.06;45.84;97813.44;5008644;28;19937;-85
2022/08/13 10:01:11;;;;;;;;;;;;;;;27.13;46.54;97810.78;5002978;28;20704;-87
2022/08/13 10:03:40;;;;;;;;;;;;;;;26.94;46.33;97819.16;5004283;28;20336;-86
2022/08/13 10:06:07;;;;;;;;;;;;;;;27.07;46.01;97813.06;5003749;28;19935;-86
2022/08/13 10:08:34;;;;;;;;;;;;;;;27.31;45.85;97811.78;5005300;28;19925;-87
2022/08/13 10:11:01;;;;;;;;;;;;;;;27.57;46.42;97808.19;5006563;28;19925;-87
2022/08/13 10:13:28;;;;;;;;;;;;;;;27.34;44.98;97800.06;5006731;28;19983;-87
2022/08/13 10:15:54;;;;;;;;;;;;;;;27.22;43.91;97806.59;5008318;28;19929;-89
2022/08/13 10:18:24;;;;;;;;;;;;;;;27.05;43.49;97793.44;4999519;28;20491;-86
2022/08/13 10:20:52;;;;;;;;;;;;;;;26.90;43.79;97808.16;5004994;28;20412;-86
2022/08/13 10:23:19;;;;;;;;;;;;;;;27.08;44.83;97795.44;5006239;28;19980;-86
2022/08/13 10:25:46;;;;;;;;;;;;;;;27.17;44.47;97803.41;5006033;28;19965;-85
2022/08/13 10:28:17;;;;;;;;;;;;;;;27.49;45.38;97801.03;5006615;28;20386;-85
2022/08/13 10:30:43;;;;;;;;;;;;;;;27.84;44.61;97802.16;5006396;28;19957;-86
2022/08/13 10:33:12;;;;;;;;;;;;;;;27.84;45.07;97796.69;5006155;28;20471;-86
2022/08/13 10:35:39;;;;;;;;;;;;;;;27.74;42.03;97796.56;5001938;28;20346;-86
2022/08/13 10:38:08;;;;;;;;;;;;;;;27.73;41.55;97789.53;5012686;28;19953;-86
2022/08/13 10:40:35;;;;;;;;;;;;;;;27.35;42.71;97793.41;5004710;28;19925;-84
2022/08/13 10:43:05;;;;;;;;;;;;;;;27.30;42.09;97771.81;5007759;28;19932;-85
2022/08/13 10:45:32;;;;;;;;;;;;;;;27.27;42.81;97784.31;4992328;28;20016;-86
2022/08/13 10:48:00;;;;;;;;;;;;;;;27.52;43.23;97779.13;4991062;28;19976;-84
2022/08/13 10:50:29;;;;;;;;;;;;;;;27.73;43.35;97775.81;4998976;28;19938;-85
2022/08/13 10:52:56;;;;;;;;;;;;;;;27.36;42.81;97776.56;5004682;28;19929;-86
2022/08/13 10:55:24;;;;;;;;;;;;;;;27.68;43.27;97776.91;5002703;28;19961;-88
2022/08/13 10:57:51;;;;;;;;;;;;;;;27.50;40.70;97775.19;5007414;28;20408;-84
2022/08/13 11:00:17;;;;;;;;;;;;;;;27.46;41.75;97780.63;4995569;28;19968;-84
2022/08/13 11:02:45;;;;;;;;;;;;;;;27.48;41.75;97775.53;4999795;28;19952;-89
2022/08/13 11:05:12;;;;;;;;;;;;;;;27.67;40.54;97772.59;5007661;28;19985;-86
2022/08/13 11:07:39;;;;;;;;;;;;;;;27.73;40.77;97765.59;5005768;28;19990;-87
2022/08/13 11:10:07;;;;;;;;;;;;;;;27.81;40.79;97766.44;4993279;28;20020;-85
2022/08/13 11:12:36;;;;;;;;;;;;;;;28.00;40.86;97760.75;5005898;28;20411;-85
2022/08/13 11:15:03;;;;;;;;;;;;;;;27.96;40.79;97757.16;4998905;28;20379;-85
2022/08/13 11:17:29;;;;;;;;;;;;;;;28.03;40.27;97762.72;5004260;28;19930;-85
2022/08/13 11:19:56;;;;;;;;;;;;;;;28.04;39.78;97758.03;4999115;28;19969;-86
2022/08/13 11:22:23;;;;;;;;;;;;;;;28.09;39.01;97754.94;4999563;28;19953;-87
2022/08/13 11:24:50;;;;;;;;;;;;;;;28.20;38.74;97758.53;5004882;28;19926;-87
2022/08/13 11:27:16;;;;;;;;;;;;;;;28.25;39.25;97750.75;5001393;28;19926;-85
2022/08/13 11:29:44;;;;;;;;;;;;;;;28.33;40.60;97749.63;5005377;28;19929;-86
2022/08/13 11:32:10;;;;;;;;;;;;;;;28.17;39.95;97742.81;4999909;28;19930;-86
2022/08/13 11:34:37;;;;;;;;;;;;;;;28.44;39.97;97741.44;5005272;28;19970;-86
2022/08/13 11:37:03;;;;;;;;;;;;;;;28.30;38.92;97741.34;5005040;28;19929;-86
2022/08/13 11:39:30;;;;;;;;;;;;;;;28.14;38.92;97738.09;5007705;28;20709;-86
2022/08/13 11:41:56;;;;;;;;;;;;;;;28.06;39.10;97741.97;5013413;28;20424;-86
2022/08/13 11:44:23;;;;;;;;;;;;;;;28.05;40.38;97743.13;4999513;28;19987;-85
2022/08/13 11:46:50;;;;;;;;;;;;;;;28.13;40.52;97736.53;5004059;28;20045;-87
2022/08/13 11:49:17;;;;;;;;;;;;;;;28.18;40.47;97734.22;4991493;28;19926;-84
2022/08/13 11:51:45;;;;;;;;;;;;;;;28.38;39.11;97727.25;4995432;28;20561;-85
2022/08/13 11:54:11;;;;;;;;;;;;;;;28.44;37.16;97727.72;4998012;28;19925;-84
2022/08/13 11:56:38;;;;;;;;;;;;;;;28.35;37.51;97727.25;5001796;28;19925;-86
2022/08/13 11:59:04;;;;;;;;;;;;;;;28.34;37.98;97720.19;4994596;28;20024;-85
2022/08/13 12:01:31;;;;;;;;;;;;;;;28.37;38.54;97703.75;4999462;28;19934;-85
2022/08/13 12:03:59;;;;;;;;;;;;;;;28.39;37.56;97709.63;5003035;28;19930;-85
2022/08/13 12:06:25;;;;;;;;;;;;;;;28.54;37.37;97713.22;5004685;28;19929;-86
2022/08/13 12:08:52;;;;;;;;;;;;;;;28.52;38.53;97712.81;5004888;28;20471;-86
2022/08/13 12:11:18;;;;;;;;;;;;;;;28.62;38.38;97698.34;4991616;28;20054;-85
2022/08/13 12:13:44;;;;;;;;;;;;;;;28.61;37.83;97704.22;5010215;28;19936;-87
2022/08/13 12:16:11;;;;;;;;;;;;;;;28.47;38.42;97704.97;5012621;28;19955;-84
2022/08/13 12:18:37;;;;;;;;;;;;;;;28.37;37.92;97702.94;4996384;28;20020;-84
2022/08/13 12:21:05;;;;;;;;;;;;;;;28.34;38.55;97709.22;5007468;28;19932;-85
2022/08/13 12:23:31;;;;;;;;;;;;;;;28.12;39.62;97713.00;5007981;28;19926;-86
2022/08/13 12:25:58;;;;;;;;;;;;;;;28.22;39.35;97707.59;5007773;28;19939;-86
2022/08/13 12:28:25;;;;;;;;;;;;;;;28.11;39.71;97705.91;5003983;28;19979;-88
2022/08/13 12:30:53;;;;;;;;;;;;;;;28.08;40.03;97706.69;5002155;28;20431;-87
2022/08/13 12:33:20;;;;;;;;;;;;;;;28.08;40.25;97706.69;5001447;28;20540;-85
2022/08/13 12:35:46;;;;;;;;;;;;;;;28.11;39.53;97711.41;5006152;28;19925;-84
2022/08/13 12:38:16;;;;;;;;;;;;;;;28.14;39.76;97707.91;5007057;28;19925;-86
2022/08/13 12:40:43;;;;;;;;;;;;;;;27.98;40.00;97707.38;5007484;28;19930;-85
2022/08/13 12:43:09;;;;;;;;;;;;;;;28.08;39.58;97701.97;4997003;28;20727;-87
2022/08/13 12:45:36;;;;;;;;;;;;;;;28.13;39.60;97696.13;5003852;28;19926;-85
2022/08/13 12:48:03;;;;;;;;;;;;;;;28.23;39.05;97697.34;5009553;28;20420;-85
2022/08/13 12:50:30;;;;;;;;;;;;;;;28.22;39.42;97693.84;5018778;28;19940;-85
2022/08/13 12:52:57;;;;;;;;;;;;;;;28.36;38.43;97687.63;5005959;28;19925;-84
2022/08/13 12:55:24;;;;;;;;;;;;;;;28.44;38.10;97692.00;4998445;28;19930;-87
2022/08/13 12:57:51;;;;;;;;;;;;;;;28.46;38.14;97694.34;5005901;28;20020;-85
2022/08/13 13:00:17;;;;;;;;;;;;;;;28.57;38.55;97695.16;4996271;28;19926;-86
2022/08/13 13:02:44;;;;;;;;;;;;;;;28.72;38.04;97689.38;5001441;28;20744;-86
2022/08/13 13:05:10;;;;;;;;;;;;;;;28.71;38.14;97689.78;5001271;28;19969;-85
2022/08/13 13:07:36;;;;;;;;;;;;;;;28.73;37.56;97685.47;5006176;28;19937;-85